地図

経路データ

SID SEASON NUMBER BASIN SUBBASIN NAME ISO_TIME NATURE LAT LON WMO_WIND WMO_PRES WMO_AGENCY TRACK_TYPE DIST2LAND LANDFALL IFLAG USA_AGENCY USA_ATCF_ID USA_LAT USA_LON USA_RECORD USA_STATUS USA_WIND USA_PRES USA_SSHS USA_R34_NE USA_R34_SE USA_R34_SW USA_R34_NW USA_R50_NE USA_R50_SE USA_R50_SW USA_R50_NW USA_R64_NE USA_R64_SE USA_R64_SW USA_R64_NW USA_POCI USA_ROCI USA_RMW USA_EYE TOKYO_LAT TOKYO_LON TOKYO_GRADE TOKYO_WIND TOKYO_PRES TOKYO_R50_DIR TOKYO_R50_LONG TOKYO_R50_SHORT TOKYO_R30_DIR TOKYO_R30_LONG TOKYO_R30_SHORT TOKYO_LAND CMA_LAT CMA_LON CMA_CAT CMA_WIND CMA_PRES HKO_LAT HKO_LON HKO_CAT HKO_WIND HKO_PRES NEWDELHI_LAT NEWDELHI_LON NEWDELHI_GRADE NEWDELHI_WIND NEWDELHI_PRES NEWDELHI_CI NEWDELHI_DP NEWDELHI_POCI REUNION_LAT REUNION_LON REUNION_TYPE REUNION_WIND REUNION_PRES REUNION_TNUM REUNION_CI REUNION_RMW REUNION_R34_NE REUNION_R34_SE REUNION_R34_SW REUNION_R34_NW REUNION_R50_NE REUNION_R50_SE REUNION_R50_SW REUNION_R50_NW REUNION_R64_NE REUNION_R64_SE REUNION_R64_SW REUNION_R64_NW BOM_LAT BOM_LON BOM_TYPE BOM_WIND BOM_PRES BOM_TNUM BOM_CI BOM_RMW BOM_R34_NE BOM_R34_SE BOM_R34_SW BOM_R34_NW BOM_R50_NE BOM_R50_SE BOM_R50_SW BOM_R50_NW BOM_R64_NE BOM_R64_SE BOM_R64_SW BOM_R64_NW BOM_ROCI BOM_POCI BOM_EYE BOM_POS_METHOD BOM_PRES_METHOD NADI_LAT NADI_LON NADI_CAT NADI_WIND NADI_PRES WELLINGTON_LAT WELLINGTON_LON WELLINGTON_WIND WELLINGTON_PRES DS824_LAT DS824_LON DS824_STAGE DS824_WIND DS824_PRES TD9636_LAT TD9636_LON TD9636_STAGE TD9636_WIND TD9636_PRES TD9635_LAT TD9635_LON TD9635_WIND TD9635_PRES TD9635_ROCI NEUMANN_LAT NEUMANN_LON NEUMANN_CLASS NEUMANN_WIND NEUMANN_PRES MLC_LAT MLC_LON MLC_CLASS MLC_WIND MLC_PRES USA_GUST BOM_GUST BOM_GUST_PER REUNION_GUST REUNION_GUST_PER USA_SEAHGT USA_SEARAD_NE USA_SEARAD_SE USA_SEARAD_SW USA_SEARAD_NW STORM_SPEED STORM_DIR
2020138N10086 2020 16 NI BB AMPHAN 2020-05-16 12:00:00 NR 10.3000 86.0000 PROVISIONAL 547 547 O_____________ tcvitals BB012020 10.3000 86.0000 39 995 0 50 30 30 65 1004 220 50 8 26
2020138N10086 2020 16 NI BB AMPHAN 2020-05-16 15:00:00 NR 10.6725 86.1799 PROVISIONAL 586 586 P_____________ BB012020 10.6725 86.1799 42 993 0 50 60 67 62 1003 207 47 7 26
2020138N10086 2020 16 NI BB AMPHAN 2020-05-16 18:00:00 NR 10.9000 86.3000 PROVISIONAL 606 606 O_____________ tcvitals BB012020 10.9000 86.3000 45 992 0 50 90 105 60 1003 195 45 3 31
2020138N10086 2020 16 NI BB AMPHAN 2020-05-16 21:00:00 NR 10.9075 86.3225 PROVISIONAL 606 606 P_____________ BB012020 10.9075 86.3225 52 986 0 52 92 112 65 1002 202 37 0 0
2020138N10086 2020 16 NI BB AMPHAN 2020-05-17 00:00:00 NR 10.9000 86.3000 PROVISIONAL 606 606 O_____________ tcvitals BB012020 10.9000 86.3000 60 981 0 55 95 120 70 1001 210 30 2 348
2020138N10086 2020 16 NI BB AMPHAN 2020-05-17 03:00:00 NR 11.1050 86.2925 PROVISIONAL 616 616 P_____________ BB012020 11.1050 86.2925 62 980 0 62 90 115 57 1002 220 22 5 2
2020138N10086 2020 16 NI BB AMPHAN 2020-05-17 06:00:00 NR 11.4000 86.3000 PROVISIONAL 633 633 O_____________ tcvitals BB012020 11.4000 86.3000 64 980 1 70 85 110 45 1003 230 14 6 3
2020138N10086 2020 16 NI BB AMPHAN 2020-05-17 09:00:00 NR 11.6925 86.3350 PROVISIONAL 651 651 P_____________ BB012020 11.6925 86.3350 69 977 1 72 87 115 47 1003 225 17 6 9
2020138N10086 2020 16 NI BB AMPHAN 2020-05-17 12:00:00 NR 12.0000 86.4000 PROVISIONAL 676 660 O_____________ tcvitals BB012020 12.0000 86.4000 74 975 1 75 90 120 50 1003 220 20 7 16
2020138N10086 2020 16 NI BB AMPHAN 2020-05-17 15:00:00 NR 12.3150 86.5224 PROVISIONAL 660 643 P_____________ BB012020 12.3150 86.5224 94 956 2 112 115 137 107 1002 222 12 6 18
2020138N10086 2020 16 NI BB AMPHAN 2020-05-17 18:00:00 NR 12.6000 86.6000 PROVISIONAL 643 620 O_____________ tcvitals BB012020 12.6000 86.6000 115 938 4 150 140 155 165 1002 225 5 5 0
2020138N10086 2020 16 NI BB AMPHAN 2020-05-17 21:00:00 NR 12.8000 86.5151 PROVISIONAL 620 597 P_____________ BB012020 12.8000 86.5151 121 928 4 157 147 162 172 1000 217 5 4 334
2020138N10086 2020 16 NI BB AMPHAN 2020-05-18 00:00:00 NR 13.0000 86.4000 PROVISIONAL 597 574 O_____________ tcvitals BB012020 13.0000 86.4000 128 919 4 165 155 170 180 999 210 5 5 346
2020138N10086 2020 16 NI BB AMPHAN 2020-05-18 03:00:00 NR 13.3000 86.3924 PROVISIONAL 574 553 P_____________ BB012020 13.3000 86.3924 133 915 4 160 140 165 162 999 205 5 6 1
2020138N10086 2020 16 NI BB AMPHAN 2020-05-18 06:00:00 NR 13.6000 86.4000 PROVISIONAL 553 531 O_____________ tcvitals BB012020 13.6000 86.4000 138 911 5 155 126 160 145 999 200 5 5 354
2020138N10086 2020 16 NI BB AMPHAN 2020-05-18 09:00:00 NR 13.7850 86.3351 PROVISIONAL 531 518 P_____________ BB012020 13.7850 86.3351 141 906 5 157 130 157 140 998 190 5 4 347
2020138N10086 2020 16 NI BB AMPHAN 2020-05-18 12:00:00 NR 14.0000 86.3000 PROVISIONAL 518 496 O_____________ tcvitals BB012020 14.0000 86.3000 144 901 5 160 135 155 135 997 180 5 6 5
2020138N10086 2020 16 NI BB AMPHAN 2020-05-18 15:00:00 NR 14.3700 86.3700 PROVISIONAL 495 467 P_____________ BB012020 14.3700 86.3700 136 911 4 160 145 165 157 998 192 5 8 14
2020138N10086 2020 16 NI BB AMPHAN 2020-05-18 18:00:00 NR 14.8000 86.5000 PROVISIONAL 467 443 O_____________ tcvitals BB012020 14.8000 86.5000 128 921 4 160 155 175 180 1000 205 5 9 19
2020138N10086 2020 16 NI BB AMPHAN 2020-05-18 21:00:00 NR 15.1925 86.6649 PROVISIONAL 443 416 P_____________ BB012020 15.1925 86.6649 123 926 4 162 160 177 182 999 207 8 9 20
2020138N10086 2020 16 NI BB AMPHAN 2020-05-19 00:00:00 NR 15.6000 86.8000 PROVISIONAL 416 385 O_____________ tcvitals BB012020 15.6000 86.8000 119 931 4 165 165 180 185 999 210 12 9 9
2020138N10086 2020 16 NI BB AMPHAN 2020-05-19 03:00:00 NR 16.0425 86.8077 PROVISIONAL 385 346 P_____________ BB012020 16.0425 86.8077 114 936 4 170 192 162 172 999 210 8 9 0
2020138N10086 2020 16 NI BB AMPHAN 2020-05-19 06:00:00 NR 16.5000 86.8000 PROVISIONAL 346 323 O_____________ tcvitals BB012020 16.5000 86.8000 109 941 3 175 220 145 160 1000 210 5 9 6
2020138N10086 2020 16 NI BB AMPHAN 2020-05-19 09:00:00 NR 16.9500 86.9073 PROVISIONAL 315 295 P_____________ BB012020 16.9500 86.9073 104 946 3 175 210 145 160 1000 195 5 9 12
2020138N10086 2020 16 NI BB AMPHAN 2020-05-19 12:00:00 NR 17.4000 87.0000 PROVISIONAL 295 249 O_____________ tcvitals BB012020 17.4000 87.0000 99 951 3 175 200 145 160 1000 180 6 9 0
2020138N10086 2020 16 NI BB AMPHAN 2020-05-19 15:00:00 NR 17.8500 86.9280 PROVISIONAL 249 197 P_____________ BB012020 17.8500 86.9280 99 950 3 175 200 145 160 999 190 5 9 354
2020138N10086 2020 16 NI BB AMPHAN 2020-05-19 18:00:00 NR 18.3000 86.9000 PROVISIONAL 197 162 O_____________ tcvitals BB012020 18.3000 86.9000 99 950 3 175 200 145 160 999 200 5 9 11
2020138N10086 2020 16 NI BB AMPHAN 2020-05-19 21:00:00 NR 18.7201 87.1049 PROVISIONAL 162 137 P_____________ BB012020 18.7201 87.1049 96 950 3 175 200 147 162 998 195 7 10 28
2020138N10086 2020 16 NI BB AMPHAN 2020-05-20 00:00:00 NR 19.2000 87.4000 PROVISIONAL 137 109 O_____________ tcvitals BB012020 19.2000 87.4000 93 951 2 175 200 150 165 997 190 10 12 26
2020138N10086 2020 16 NI BB AMPHAN 2020-05-20 03:00:00 NR 19.7900 87.6576 PROVISIONAL 118 94 P_____________ BB012020 19.7900 87.6576 88 956 2 137 175 145 115 997 177 10 14 20
2020138N10086 2020 16 NI BB AMPHAN 2020-05-20 06:00:00 NR 20.5000 87.9000 PROVISIONAL 96 35 O_____________ tcvitals BB012020 20.5000 87.9000 84 961 2 100 150 140 65 997 165 10 16 14
2020138N10086 2020 16 NI BB AMPHAN 2020-05-20 09:00:00 NR 21.3573 88.0780 PROVISIONAL 24 0 P_____________ BB012020 21.3573 88.0780 79 964 1 100 145 120 55 997 160 10 18 12
2020138N10086 2020 16 NI BB AMPHAN 2020-05-20 12:00:00 NR 22.2000 88.3000 PROVISIONAL 0 0 O_____________ tcvitals BB012020 22.2000 88.3000 74 968 1 100 140 100 45 997 155 10 16 21
2020138N10086 2020 16 NI BB AMPHAN 2020-05-20 15:00:00 NR 22.8452 88.6997 PROVISIONAL 0 0 P_____________ BB012020 22.8452 88.6997 64 976 1 97 140 100 42 998 167 10 14 32
2020138N10086 2020 16 NI BB AMPHAN 2020-05-20 18:00:00 NR 23.4000 89.1000 PROVISIONAL 0 0 O_____________ tcvitals BB012020 23.4000 89.1000 54 984 0 95 140 100 40 1000 180 10 13 28
2020138N10086 2020 16 NI BB AMPHAN 2020-05-20 21:00:00 NR 23.9473 89.3501 PROVISIONAL 0 0 P_____________ BB012020 23.9473 89.3501 46 987 0 1000 180 10 12 18
2020138N10086 2020 16 NI BB AMPHAN 2020-05-21 00:00:00 NR 24.5000 89.5000 PROVISIONAL 0 O_____________ tcvitals BB012020 24.5000 89.5000 39 990 0 1000 180 10 11 14

IBTrACS Databaseについて

本データベースは、米国NOAAが公開する1842年以降の世界の熱帯低気圧のベストトラックデータアーカイブInternational Best Track Archive for Climate Stewardship (IBTrACS)を、ウェブで閲覧しやすい形式に変換したものです。

最終更新日:2021-10-21